createdAt,value
2019-04-05T00:01:30.737Z,78.47
2019-04-05T00:03:32.533Z,84.73
2019-04-05T00:05:34.378Z,73.90
2019-04-05T00:07:36.097Z,80.27
2019-04-05T00:09:37.799Z,76.30
2019-04-05T00:11:39.709Z,83.23
2019-04-05T00:13:41.466Z,83.23
2019-04-05T00:15:44.066Z,85.10
2019-04-05T00:17:45.784Z,88.73
2019-04-05T00:19:47.605Z,93.27
2019-04-05T00:21:49.428Z,88.13
2019-04-05T00:23:51.154Z,95.73
2019-04-05T00:25:52.967Z,92.23
2019-04-05T00:27:54.672Z,99.53
2019-04-05T00:29:56.382Z,105.50
2019-04-05T00:31:58.082Z,96.80
2019-04-05T00:33:59.806Z,99.80
2019-04-05T00:36:01.509Z,94.57
2019-04-05T00:38:03.641Z,95.67
2019-04-05T00:40:06.810Z,103.73
2019-04-05T00:42:08.514Z,104.97
2019-04-05T00:44:10.243Z,101.07
2019-04-05T00:46:12.051Z,104.30
2019-04-05T00:48:13.858Z,96.00
2019-04-05T00:50:15.773Z,104.73
2019-04-05T00:52:17.686Z,99.50
2019-04-05T00:54:19.521Z,99.37
2019-04-05T00:56:21.325Z,99.83
2019-04-05T00:58:23.041Z,97.10
2019-04-05T01:00:24.887Z,89.80
2019-04-05T01:02:27.051Z,94.57
2019-04-05T01:04:28.761Z,85.77
2019-04-05T01:06:30.586Z,97.27
2019-04-05T01:08:32.494Z,89.83
2019-04-05T01:10:34.321Z,93.60
2019-04-05T01:12:38.038Z,86.93
2019-04-05T01:14:40.008Z,94.47
2019-04-05T01:16:42.781Z,93.27
2019-04-05T01:18:44.592Z,103.40
2019-04-05T01:20:50.201Z,90.57
2019-04-05T01:22:52.835Z,96.40
2019-04-05T01:24:55.227Z,90.47
2019-04-05T01:26:58.658Z,90.33
2019-04-05T01:29:00.474Z,91.33
2019-04-05T01:31:02.409Z,89.93
2019-04-05T01:33:04.364Z,92.10
2019-04-05T01:35:06.213Z,91.60
2019-04-05T01:37:08.094Z,88.03
2019-04-05T01:39:10.115Z,88.73
2019-04-05T01:41:12.048Z,82.50
2019-04-05T01:43:14.351Z,88.40
2019-04-05T01:45:16.287Z,85.00
2019-04-05T01:47:18.097Z,88.07
2019-04-05T01:49:19.893Z,87.00
2019-04-05T01:51:21.950Z,83.70
2019-04-05T01:53:23.691Z,85.03
2019-04-05T01:55:25.536Z,83.57
2019-04-05T01:57:27.359Z,85.23
2019-04-05T01:59:29.161Z,87.50
2019-04-05T02:01:30.998Z,87.73
2019-04-05T02:03:32.915Z,86.50
2019-04-05T02:05:34.835Z,91.97
2019-04-05T02:07:36.882Z,92.00
2019-04-05T02:09:38.918Z,91.17
2019-04-05T02:11:40.980Z,95.43
2019-04-05T02:13:42.899Z,92.77
2019-04-05T02:15:44.909Z,105.13
2019-04-05T02:17:46.759Z,85.50
2019-04-05T02:19:48.676Z,92.47
2019-04-05T02:21:50.588Z,87.53
2019-04-05T02:23:52.815Z,98.53
2019-04-05T02:25:54.636Z,97.03
2019-04-05T02:27:56.795Z,97.17
2019-04-05T02:29:58.717Z,95.03
2019-04-05T02:32:00.629Z,102.27
2019-04-05T02:34:02.538Z,93.40
2019-04-05T02:36:04.466Z,97.03
2019-04-05T02:38:06.388Z,89.90
2019-04-05T02:40:11.074Z,89.20
2019-04-05T02:42:13.463Z,87.33
2019-04-05T02:44:16.388Z,96.33
2019-04-05T02:46:24.101Z,92.10
2019-04-05T02:48:24.937Z,95.57
2019-04-05T02:50:30.470Z,88.50
2019-04-05T02:52:34.393Z,90.33
2019-04-05T02:54:36.305Z,94.43
2019-04-05T02:56:39.129Z,91.33
2019-04-05T02:58:41.546Z,94.37
2019-04-05T03:00:44.259Z,85.57
2019-04-05T03:02:47.057Z,95.33
2019-04-05T03:04:49.564Z,86.97
2019-04-05T03:06:51.455Z,92.37
2019-04-05T03:08:53.366Z,103.03
2019-04-05T03:11:04.444Z,94.80
2019-04-05T03:13:06.364Z,93.20
2019-04-05T03:15:08.886Z,90.70
2019-04-05T03:17:11.138Z,88.83
2019-04-05T03:19:21.330Z,86.30
2019-04-05T03:21:25.873Z,84.87
2019-04-05T03:23:29.609Z,88.83
2019-04-05T03:25:32.752Z,92.23
2019-04-05T03:27:37.440Z,90.90
2019-04-05T03:29:39.871Z,92.33
2019-04-05T03:31:41.774Z,87.40
2019-04-05T03:33:44.180Z,90.57
2019-04-05T03:35:46.103Z,87.10
2019-04-05T03:37:48.052Z,88.03
2019-04-05T03:39:50.414Z,88.43
2019-04-05T03:41:53.064Z,86.97
2019-04-05T03:43:55.080Z,87.07
2019-04-05T03:45:56.998Z,88.60
2019-04-05T03:47:58.919Z,88.57
2019-04-05T03:50:00.853Z,93.40
2019-04-05T03:52:04.293Z,91.37
2019-04-05T03:54:06.330Z,89.03
2019-04-05T03:56:08.240Z,86.50
2019-04-05T03:58:10.444Z,83.57
2019-04-05T04:00:12.487Z,87.70
2019-04-05T04:02:14.284Z,84.00
2019-04-05T04:04:16.153Z,84.10
2019-04-05T04:06:18.051Z,92.43
2019-04-05T04:08:23.430Z,88.60
2019-04-05T04:10:26.494Z,83.30
2019-04-05T04:12:28.309Z,87.10
2019-04-05T04:14:30.220Z,83.47
2019-04-05T04:16:32.531Z,82.47
2019-04-05T04:18:34.443Z,87.00
2019-04-05T04:20:40.878Z,86.23
2019-04-05T04:22:42.831Z,96.83
2019-04-05T04:24:45.158Z,85.43
2019-04-05T04:26:47.970Z,85.73
2019-04-05T04:28:49.890Z,80.47
2019-04-05T04:30:52.499Z,98.13
2019-04-05T04:32:54.618Z,90.43
2019-04-05T04:34:56.674Z,91.13
2019-04-05T04:36:58.470Z,81.33
2019-04-05T04:39:00.373Z,92.87
2019-04-05T04:41:02.385Z,88.20
2019-04-05T04:43:04.377Z,95.93
2019-04-05T04:45:12.316Z,100.63
2019-04-05T04:47:10.394Z,103.27
2019-04-05T04:49:12.419Z,92.03
2019-04-05T04:51:14.539Z,94.07
2019-04-05T04:53:16.469Z,94.57
2019-04-05T04:55:18.396Z,90.33
2019-04-05T04:57:20.312Z,104.47
2019-04-05T04:59:22.349Z,102.50
2019-04-05T05:01:24.704Z,101.97
2019-04-05T05:03:26.660Z,100.83
2019-04-05T05:05:28.934Z,105.50
2019-04-05T05:07:30.844Z,107.50
2019-04-05T05:09:32.895Z,110.43
2019-04-05T05:11:35.436Z,104.30
2019-04-05T05:13:37.439Z,102.93
2019-04-05T05:15:39.470Z,121.27
2019-04-05T05:17:41.761Z,111.17
2019-04-05T05:19:43.773Z,106.77
2019-04-05T05:21:46.567Z,119.70
2019-04-05T05:23:48.537Z,121.50
2019-04-05T05:25:50.960Z,116.37
2019-04-05T05:27:52.895Z,120.80
2019-04-05T05:29:54.905Z,110.87
2019-04-05T05:31:56.837Z,125.10
2019-04-05T05:33:58.969Z,121.83
2019-04-05T05:36:00.883Z,112.20
2019-04-05T05:38:02.889Z,102.70
2019-04-05T05:40:07.375Z,106.13
2019-04-05T05:42:09.384Z,121.30
2019-04-05T05:44:11.329Z,121.50
2019-04-05T05:46:13.165Z,114.73
2019-04-05T05:48:15.086Z,265.73
2019-04-05T05:50:17.301Z,256.30
2019-04-05T05:52:19.658Z,111.00
2019-04-05T05:54:21.429Z,103.00
2019-04-05T05:56:23.160Z,117.57
2019-04-05T05:58:25.873Z,107.50
2019-04-05T06:00:30.533Z,107.77
2019-04-05T06:02:32.083Z,98.73
2019-04-05T06:04:33.773Z,92.67
2019-04-05T06:06:35.761Z,99.80
2019-04-05T06:08:37.474Z,106.90
2019-04-05T06:10:39.178Z,97.33
2019-04-05T06:12:41.152Z,105.60
2019-04-05T06:14:42.846Z,96.93
2019-04-05T06:16:46.598Z,100.23
2019-04-05T06:18:48.677Z,101.17
2019-04-05T06:20:50.460Z,106.33
2019-04-05T06:22:52.268Z,98.10
2019-04-05T06:24:54.088Z,104.97
2019-04-05T06:26:55.798Z,94.70
2019-04-05T06:28:57.504Z,104.50
2019-04-05T06:30:59.339Z,93.87
2019-04-05T06:33:01.301Z,94.07
2019-04-05T06:35:03.798Z,92.73
2019-04-05T06:37:05.522Z,98.13
2019-04-05T06:39:07.437Z,97.00
2019-04-05T06:41:09.166Z,97.10
2019-04-05T06:43:10.873Z,94.20
2019-04-05T06:45:12.990Z,101.57
2019-04-05T06:47:14.710Z,104.00
2019-04-05T06:49:16.422Z,109.50
2019-04-05T06:51:18.157Z,101.57
2019-04-05T06:53:19.853Z,110.97
2019-04-05T06:55:21.584Z,97.43
2019-04-05T06:57:23.306Z,106.33
2019-04-05T06:59:25.118Z,116.00
2019-04-05T07:01:27.020Z,103.30
2019-04-05T07:03:28.837Z,98.83
2019-04-05T07:05:30.558Z,109.43
2019-04-05T07:07:32.288Z,97.70
2019-04-05T07:09:34.404Z,107.63
2019-04-05T07:11:36.242Z,99.50
2019-04-05T07:13:38.050Z,102.00
2019-04-05T07:15:39.765Z,91.53
2019-04-05T07:17:41.489Z,92.53
2019-04-05T07:19:43.569Z,89.00
2019-04-05T07:21:45.273Z,91.23
2019-04-05T07:23:46.996Z,102.03
2019-04-05T07:25:48.709Z,88.57
2019-04-05T07:27:50.424Z,92.80
2019-04-05T07:29:52.146Z,88.13
2019-04-05T07:31:53.890Z,89.93
2019-04-05T07:33:56.305Z,94.87
2019-04-05T07:35:58.360Z,93.37
2019-04-05T07:38:00.063Z,92.43
2019-04-05T07:40:01.921Z,88.40
2019-04-05T07:42:03.835Z,85.67
2019-04-05T07:44:05.545Z,85.50
2019-04-05T07:46:07.275Z,82.17
2019-04-05T07:48:09.185Z,88.03
2019-04-05T07:50:10.996Z,83.73
2019-04-05T07:52:13.177Z,85.47
2019-04-05T07:54:15.053Z,79.30
2019-04-05T07:56:16.854Z,82.13
2019-04-05T07:58:18.584Z,90.63
2019-04-05T08:03:10.927Z,84.37
2019-04-05T08:05:13.161Z,85.33
2019-04-05T08:07:17.220Z,78.70
2019-04-05T08:09:19.824Z,82.50
2019-04-05T08:11:22.478Z,77.93
2019-04-05T08:13:26.489Z,76.43
2019-04-05T08:15:28.591Z,82.87
2019-04-05T08:17:30.313Z,82.13
2019-04-05T08:19:32.136Z,78.23
2019-04-05T08:21:34.009Z,76.10
2019-04-05T08:23:35.742Z,81.60
2019-04-05T08:25:37.552Z,78.93
2019-04-05T08:27:39.265Z,80.47
2019-04-05T08:29:41.045Z,80.77
2019-04-05T08:31:42.911Z,79.70
2019-04-05T08:33:44.621Z,77.13
2019-04-05T08:35:46.444Z,80.17
2019-04-05T08:37:48.153Z,76.37
2019-04-05T08:39:49.885Z,134.87
2019-04-05T08:41:51.639Z,135.07
2019-04-05T08:43:53.355Z,90.20
2019-04-05T08:45:55.069Z,88.83
2019-04-05T08:47:57.221Z,131.07
2019-04-05T08:49:58.925Z,111.73
2019-04-05T08:52:00.656Z,90.23
2019-04-05T08:54:02.685Z,81.33
2019-04-05T08:56:04.602Z,85.70
2019-04-05T08:58:06.419Z,78.23
2019-04-05T09:00:08.869Z,80.07
2019-04-05T09:02:10.596Z,83.40
2019-04-05T09:04:12.290Z,106.47
2019-04-05T09:06:14.105Z,120.50
2019-04-05T09:08:16.058Z,87.33
2019-04-05T09:10:17.966Z,90.20
2019-04-05T09:12:19.669Z,85.53
2019-04-05T09:14:21.378Z,119.47
2019-04-05T09:16:23.118Z,188.13
2019-04-05T09:18:24.937Z,105.47
2019-04-05T09:20:26.757Z,87.20
2019-04-05T09:22:28.453Z,87.97
2019-04-05T09:24:30.161Z,91.17
2019-04-05T09:26:31.885Z,107.03
2019-04-05T09:28:33.616Z,115.73
2019-04-05T09:30:35.628Z,183.80
2019-04-05T09:32:37.367Z,168.40
2019-04-05T09:34:39.069Z,132.77
2019-04-05T09:36:40.870Z,192.00
2019-04-05T09:38:42.652Z,188.30
2019-04-05T09:40:44.766Z,192.97
2019-04-05T09:42:46.705Z,174.60
2019-04-05T09:44:48.441Z,128.67
2019-04-05T09:46:51.269Z,110.90
2019-04-05T09:48:53.256Z,121.03
2019-04-05T09:50:55.100Z,108.83
2019-04-05T09:52:56.797Z,101.07
2019-04-05T09:54:58.496Z,100.83
2019-04-05T09:57:00.212Z,88.57
2019-04-05T09:59:02.123Z,86.17
2019-04-05T10:01:04.158Z,81.00
2019-04-05T10:03:05.853Z,108.00
2019-04-05T10:05:08.010Z,121.90
2019-04-05T10:07:09.757Z,92.53
2019-04-05T10:09:11.776Z,85.80
2019-04-05T10:11:13.485Z,80.37
2019-04-05T10:13:15.201Z,87.37
2019-04-05T10:15:17.022Z,79.47
2019-04-05T10:17:18.721Z,80.37
2019-04-05T10:19:20.488Z,76.57
2019-04-05T10:21:22.379Z,75.20
2019-04-05T10:23:24.093Z,78.20
2019-04-05T10:25:26.154Z,76.20
2019-04-05T10:27:27.961Z,68.70
2019-04-05T10:29:29.739Z,71.43
2019-04-05T10:31:31.577Z,79.03
2019-04-05T10:33:33.288Z,74.77
2019-04-05T10:35:35.001Z,84.07
2019-04-05T10:37:36.745Z,77.47
2019-04-05T10:39:38.461Z,221.60
2019-04-05T10:41:40.277Z,100.83
2019-04-05T10:43:41.981Z,87.70
2019-04-05T10:45:43.909Z,82.43
2019-04-05T10:47:45.818Z,80.73
2019-04-05T10:49:47.518Z,76.43
2019-04-05T10:51:49.353Z,84.10
2019-04-05T10:53:51.052Z,88.03
2019-04-05T10:55:52.875Z,80.20
2019-04-05T10:57:54.588Z,92.50
2019-04-05T10:59:56.320Z,83.27
2019-04-05T11:01:58.021Z,85.73
2019-04-05T11:03:59.952Z,86.07
2019-04-05T11:06:01.766Z,79.17
2019-04-05T11:08:03.676Z,77.20
2019-04-05T11:10:07.520Z,79.53
2019-04-05T11:12:09.265Z,73.00
2019-04-05T11:14:14.058Z,73.40
2019-04-05T11:16:17.573Z,72.53
2019-04-05T11:18:19.497Z,73.63
2019-04-05T11:20:22.067Z,73.77
2019-04-05T11:22:24.208Z,81.10
2019-04-05T11:24:26.021Z,81.33
2019-04-05T11:26:27.826Z,70.13
2019-04-05T11:28:29.561Z,74.93
2019-04-05T11:30:40.728Z,71.63
2019-04-05T11:32:42.521Z,70.53
2019-04-05T11:34:44.353Z,68.77
2019-04-05T11:36:46.264Z,69.63
2019-04-05T11:38:50.908Z,68.60
2019-04-05T11:40:52.810Z,76.33
2019-04-05T11:42:55.729Z,67.80
2019-04-05T11:44:57.662Z,66.83
2019-04-05T11:46:59.779Z,64.63
2019-04-05T11:49:03.826Z,67.37
2019-04-05T11:51:05.549Z,62.90
2019-04-05T11:53:07.456Z,61.73
2019-04-05T11:55:09.560Z,63.73
2019-04-05T11:57:11.290Z,64.27
2019-04-05T11:59:15.547Z,58.67
2019-04-05T12:01:23.489Z,64.27
2019-04-05T12:03:25.945Z,57.93
2019-04-05T12:05:28.201Z,65.70
2019-04-05T12:07:29.907Z,62.07
2019-04-05T12:09:31.629Z,62.43
2019-04-05T12:11:33.620Z,70.87
2019-04-05T12:13:35.431Z,66.27
2019-04-05T12:15:37.141Z,68.57
2019-04-05T12:17:38.954Z,66.17
2019-04-05T12:19:40.782Z,69.33
2019-04-05T12:21:42.617Z,67.53
2019-04-05T12:23:44.350Z,68.00
2019-04-05T12:25:46.102Z,65.20
2019-04-05T12:27:47.808Z,71.13
2019-04-05T12:29:49.504Z,67.97
2019-04-05T12:31:53.457Z,65.40
2019-04-05T12:33:55.161Z,67.03
2019-04-05T12:35:56.954Z,65.30
2019-04-05T12:37:58.733Z,63.47
2019-04-05T12:40:00.546Z,59.13
2019-04-05T12:42:02.361Z,58.87
2019-04-05T12:44:04.473Z,66.90
2019-04-05T12:46:06.488Z,59.50
2019-04-05T12:48:08.188Z,71.10
2019-04-05T12:50:14.172Z,62.87
2019-04-05T12:52:22.621Z,60.23
2019-04-05T12:54:18.113Z,60.80
2019-04-05T12:56:19.944Z,65.17
2019-04-05T12:58:25.526Z,59.83
2019-04-05T13:00:25.940Z,58.17
2019-04-05T13:02:33.996Z,63.43
2019-04-05T13:04:32.066Z,55.60
2019-04-05T13:06:33.814Z,62.23
2019-04-05T13:08:35.548Z,59.50
2019-04-05T13:10:37.261Z,62.13
2019-04-05T13:12:40.745Z,66.17
2019-04-05T13:14:42.457Z,65.17
2019-04-05T13:16:44.292Z,61.57
2019-04-05T13:18:46.033Z,61.90
2019-04-05T13:20:48.026Z,60.80
2019-04-05T13:22:49.765Z,69.97
2019-04-05T13:24:51.501Z,66.23
2019-04-05T13:26:53.324Z,63.93
2019-04-05T13:28:55.035Z,70.10
2019-04-05T13:30:56.849Z,70.03
2019-04-05T13:32:58.573Z,71.10
2019-04-05T13:35:00.312Z,65.13
2019-04-05T13:37:02.047Z,63.03
2019-04-05T13:39:05.771Z,65.50
2019-04-05T13:41:07.477Z,59.57
2019-04-05T13:43:09.342Z,61.20
2019-04-05T13:45:12.569Z,62.53
2019-04-05T13:47:14.846Z,57.53
2019-04-05T13:49:16.560Z,58.80
2019-04-05T13:51:27.819Z,63.77
2019-04-05T13:55:52.196Z,65.43
2019-04-05T13:57:53.933Z,57.60
2019-04-05T13:59:55.673Z,63.13
2019-04-05T14:02:06.043Z,62.17
2019-04-05T14:04:01.224Z,64.13
2019-04-05T14:06:03.569Z,58.00
2019-04-05T14:08:10.339Z,59.73
2019-04-05T14:10:12.286Z,63.63
2019-04-05T14:12:14.215Z,65.33
2019-04-05T14:14:16.010Z,58.10
2019-04-05T14:16:17.711Z,62.60
2019-04-05T14:18:20.807Z,63.63
2019-04-05T14:20:24.542Z,64.57
2019-04-05T14:22:26.396Z,67.33
2019-04-05T14:24:28.222Z,65.57
2019-04-05T14:26:30.063Z,66.07
2019-04-05T14:28:35.665Z,61.90
2019-04-05T14:30:37.386Z,71.43
2019-04-05T14:32:39.092Z,66.90
2019-04-05T14:34:40.780Z,74.13
2019-04-05T14:36:42.509Z,70.67
2019-04-05T14:38:44.332Z,83.07
2019-04-05T14:40:46.285Z,79.07
2019-04-05T14:42:48.805Z,81.40
2019-04-05T14:44:50.548Z,80.37
2019-04-05T14:46:52.253Z,78.03
2019-04-05T14:48:54.063Z,81.10
2019-04-05T14:50:57.927Z,88.60
2019-04-05T14:53:01.816Z,79.87
2019-04-05T14:55:03.999Z,78.93
2019-04-05T14:57:06.126Z,80.37
2019-04-05T14:59:07.929Z,78.70
2019-04-05T15:01:10.669Z,81.90
2019-04-05T15:03:13.051Z,85.67
2019-04-05T15:05:17.842Z,77.10
2019-04-05T15:07:20.836Z,82.20
2019-04-05T15:09:25.510Z,82.23
2019-04-05T15:11:29.411Z,79.13
2019-04-05T15:13:30.820Z,76.50
2019-04-05T15:15:32.668Z,76.50
2019-04-05T15:17:46.874Z,82.40
2019-04-05T15:19:38.115Z,73.63
2019-04-05T15:21:39.961Z,73.33
2019-04-05T15:23:45.391Z,81.00
2019-04-05T15:25:49.372Z,71.83
2019-04-05T15:27:51.386Z,73.13
2019-04-05T15:29:55.342Z,75.27
2019-04-05T15:31:56.965Z,84.70
2019-04-05T15:33:58.708Z,77.93
2019-04-05T15:36:02.954Z,71.00
2019-04-05T15:38:04.164Z,71.60
2019-04-05T15:40:07.016Z,67.67
2019-04-05T15:42:08.730Z,72.70
2019-04-05T15:44:10.459Z,71.63
2019-04-05T15:46:12.345Z,72.20
2019-04-05T15:48:14.145Z,66.30
2019-04-05T15:50:16.065Z,71.43
2019-04-05T15:52:19.202Z,67.13
2019-04-05T15:54:21.093Z,72.03
2019-04-05T15:56:22.941Z,76.33
2019-04-05T15:58:25.609Z,66.70
2019-04-05T16:00:41.680Z,77.57
2019-04-05T16:02:43.507Z,73.37
2019-04-05T16:04:45.646Z,71.43
2019-04-05T16:06:47.435Z,79.20
2019-04-05T16:08:49.220Z,78.27
2019-04-05T16:10:50.994Z,78.70
2019-04-05T16:12:52.673Z,82.63
2019-04-05T16:14:54.380Z,83.80
2019-04-05T16:16:56.260Z,80.80
2019-04-05T16:18:58.363Z,81.23
2019-04-05T16:21:00.248Z,80.30
2019-04-05T16:23:02.105Z,88.90
2019-04-05T16:25:04.664Z,88.17
2019-04-05T16:27:06.440Z,84.97
2019-04-05T16:29:08.261Z,88.50
2019-04-05T16:31:10.245Z,93.70
2019-04-05T16:33:11.976Z,87.03
2019-04-05T16:35:14.836Z,93.97
2019-04-05T16:37:16.758Z,92.40
2019-04-05T16:39:19.547Z,93.20
2019-04-05T16:41:24.316Z,99.80
2019-04-05T16:43:26.083Z,93.50
2019-04-05T16:45:27.843Z,90.30
2019-04-05T16:47:29.767Z,92.67
2019-04-05T16:49:32.757Z,103.20
2019-04-05T16:51:34.791Z,93.63
2019-04-05T16:53:38.379Z,101.30
2019-04-05T16:55:40.219Z,92.07
2019-04-05T16:57:41.929Z,88.37
2019-04-05T16:59:43.726Z,88.23
2019-04-05T17:01:45.481Z,91.83
2019-04-05T17:03:47.256Z,87.53
2019-04-05T17:05:52.224Z,91.70
2019-04-05T17:07:56.945Z,90.00
2019-04-05T17:09:58.876Z,91.03
2019-04-05T17:12:00.709Z,83.40
2019-04-05T17:14:08.496Z,84.53
2019-04-05T17:16:10.307Z,81.60
2019-04-05T17:18:12.032Z,91.00
2019-04-05T17:20:13.721Z,85.77
2019-04-05T17:22:15.452Z,87.90
2019-04-05T17:24:17.161Z,82.03
2019-04-05T17:26:21.590Z,84.23
2019-04-05T17:28:23.374Z,83.00
2019-04-05T17:30:25.407Z,81.00
2019-04-05T17:32:27.080Z,80.53
2019-04-05T17:34:28.820Z,82.53
2019-04-05T17:36:33.174Z,81.13
2019-04-05T17:38:35.141Z,74.80
2019-04-05T17:40:37.357Z,94.33
2019-04-05T17:42:39.081Z,80.37
2019-04-05T17:44:40.897Z,86.20
2019-04-05T17:46:42.812Z,81.90
2019-04-05T17:48:44.638Z,77.23
2019-04-05T17:50:46.383Z,72.27
2019-04-05T17:52:48.389Z,77.23
2019-04-05T17:54:50.133Z,85.53
2019-04-05T17:56:52.048Z,73.63
2019-04-05T17:58:55.069Z,83.53
2019-04-05T18:00:56.760Z,75.03
2019-04-05T18:02:58.634Z,71.80
2019-04-05T18:05:00.348Z,72.73
2019-04-05T18:07:02.351Z,84.60
2019-04-05T18:09:07.579Z,80.20
2019-04-05T18:11:09.621Z,77.80
2019-04-05T18:13:11.575Z,104.80
2019-04-05T18:15:13.772Z,101.97
2019-04-05T18:17:15.516Z,91.47
2019-04-05T18:19:17.269Z,78.90
2019-04-05T18:21:19.255Z,84.87
2019-04-05T18:23:25.163Z,80.10
2019-04-05T18:25:24.617Z,71.40
2019-04-05T18:27:26.661Z,81.33
2019-04-05T18:29:28.349Z,77.30
2019-04-05T18:31:31.502Z,82.67
2019-04-05T18:33:33.354Z,83.40
2019-04-05T18:35:35.089Z,72.40
2019-04-05T18:37:37.242Z,80.23
2019-04-05T18:39:38.957Z,78.93
2019-04-05T18:41:40.649Z,78.87
2019-04-05T18:43:42.485Z,76.33
2019-04-05T18:45:44.185Z,77.73
2019-04-05T18:47:45.980Z,76.90
2019-04-05T18:49:47.716Z,72.73
2019-04-05T18:51:49.554Z,77.40
2019-04-05T18:53:51.499Z,79.90
2019-04-05T18:55:54.998Z,78.40
2019-04-05T18:57:56.704Z,87.93
2019-04-05T18:59:58.402Z,76.47
2019-04-05T19:02:00.301Z,82.90
2019-04-05T19:04:05.224Z,85.93
2019-04-05T19:06:06.215Z,76.87
2019-04-05T19:08:08.121Z,75.93
2019-04-05T19:10:10.122Z,77.33
2019-04-05T19:12:12.016Z,79.93
2019-04-05T19:14:13.730Z,80.37
2019-04-05T19:16:15.413Z,70.27
2019-04-05T19:18:17.531Z,77.13
2019-04-05T19:20:19.644Z,78.33
2019-04-05T19:22:21.701Z,75.70
2019-04-05T19:24:23.671Z,72.13
2019-04-05T19:26:25.457Z,76.37
2019-04-05T19:28:34.268Z,88.50
2019-04-05T19:49:30.829Z,78.17
2019-04-05T19:51:32.548Z,73.53
2019-04-05T19:53:34.385Z,80.83
2019-04-05T19:55:36.097Z,78.53
2019-04-05T19:57:37.786Z,72.83
2019-04-05T19:59:39.472Z,78.40
2019-04-05T20:01:41.207Z,82.33
2019-04-05T20:03:43.304Z,71.37
2019-04-05T20:05:45.093Z,76.73
2019-04-05T20:07:46.908Z,72.43
2019-04-05T20:09:48.796Z,83.37
2019-04-05T20:11:50.588Z,77.43
2019-04-05T20:13:52.325Z,82.77
2019-04-05T20:15:54.129Z,76.93
2019-04-05T20:17:55.864Z,75.03
2019-04-05T20:19:57.618Z,76.37
2019-04-05T20:21:59.305Z,79.40
2019-04-05T20:24:09.435Z,83.03
2019-04-05T20:26:04.948Z,84.10
2019-04-05T20:28:06.760Z,78.13
2019-04-05T20:30:08.664Z,80.17
2019-04-05T20:32:10.376Z,84.27
2019-04-05T20:34:12.103Z,80.63
2019-04-05T20:36:14.253Z,82.20
2019-04-05T20:38:15.976Z,84.07
2019-04-05T20:40:17.689Z,72.10
2019-04-05T20:42:19.469Z,77.83
2019-04-05T20:44:21.170Z,84.20
2019-04-05T20:46:22.888Z,79.77
2019-04-05T20:48:24.704Z,81.57
2019-04-05T20:50:26.401Z,76.10
2019-04-05T20:52:28.120Z,74.50
2019-04-05T20:54:30.111Z,74.73
2019-04-05T20:56:32.062Z,75.67
2019-04-05T20:58:33.754Z,72.17
2019-04-05T21:00:35.568Z,79.13
2019-04-05T21:02:37.560Z,72.60
2019-04-05T21:04:39.284Z,71.50
2019-04-05T21:06:41.011Z,71.97
2019-04-05T21:08:42.821Z,80.27
2019-04-05T21:10:44.621Z,71.00
2019-04-05T21:12:46.325Z,70.80
2019-04-05T21:14:48.017Z,67.63
2019-04-05T21:16:49.724Z,67.23
2019-04-05T21:18:51.605Z,80.23
2019-04-05T21:20:53.636Z,70.87
2019-04-05T21:22:58.685Z,72.87
2019-04-05T21:25:00.494Z,59.90
2019-04-05T21:27:02.244Z,71.23
2019-04-05T21:29:04.443Z,66.60
2019-04-05T21:31:06.982Z,69.03
2019-04-05T21:33:08.673Z,75.53
2019-04-05T21:35:10.588Z,70.20
2019-04-05T21:37:12.321Z,71.63
2019-04-05T21:39:15.138Z,68.03
2019-04-05T21:41:17.020Z,64.43
2019-04-05T21:43:18.955Z,77.23
2019-04-05T21:45:20.698Z,73.23
2019-04-05T21:47:22.500Z,73.07
2019-04-05T21:49:24.493Z,70.20
2019-04-05T21:51:26.209Z,66.70
2019-04-05T21:53:27.995Z,69.00
2019-04-05T21:55:29.721Z,68.87
2019-04-05T21:57:31.421Z,69.80
2019-04-05T21:59:33.225Z,69.23
2019-04-05T22:01:34.905Z,67.47
2019-04-05T22:03:36.600Z,72.57
2019-04-05T22:05:38.333Z,73.50
2019-04-05T22:07:40.122Z,74.37
2019-04-05T22:09:41.892Z,73.30
2019-04-05T22:11:43.784Z,71.63
2019-04-05T22:13:45.663Z,80.50
2019-04-05T22:15:47.344Z,77.00
2019-04-05T22:17:49.053Z,76.67
2019-04-05T22:19:50.744Z,87.47
2019-04-05T22:21:52.448Z,73.83
2019-04-05T22:23:54.168Z,76.73
2019-04-05T22:25:55.973Z,70.90
2019-04-05T22:27:57.662Z,75.00
2019-04-05T22:29:59.613Z,82.20
2019-04-05T22:32:01.296Z,75.73
2019-04-05T22:34:03.008Z,87.43
2019-04-05T22:36:04.729Z,83.37
2019-04-05T22:38:06.440Z,76.97
2019-04-05T22:40:08.893Z,77.57
2019-04-05T22:42:10.625Z,79.33
2019-04-05T22:44:12.309Z,79.20
2019-04-05T22:46:14.002Z,78.90
2019-04-05T22:48:15.716Z,69.80
2019-04-05T22:50:17.406Z,82.17
2019-04-05T22:52:19.193Z,72.90
2019-04-05T22:54:20.924Z,82.10
2019-04-05T22:56:22.629Z,77.57
2019-04-05T22:58:25.250Z,73.77
2019-04-05T23:00:26.980Z,77.97
2019-04-05T23:02:28.681Z,75.40
2019-04-05T23:04:30.389Z,79.73
2019-04-05T23:06:32.097Z,76.93
2019-04-05T23:08:33.816Z,76.30
2019-04-05T23:10:35.699Z,78.13
2019-04-05T23:12:37.506Z,88.73
2019-04-05T23:14:39.291Z,80.60
2019-04-05T23:16:40.981Z,77.27
2019-04-05T23:18:42.933Z,74.93
2019-04-05T23:20:44.709Z,70.57
2019-04-05T23:22:46.397Z,80.90
2019-04-05T23:24:48.351Z,76.13
2019-04-05T23:26:50.054Z,74.73
2019-04-05T23:28:51.777Z,71.77
2019-04-05T23:30:53.470Z,67.77
2019-04-05T23:32:55.194Z,77.43
2019-04-05T23:34:57.212Z,74.43
2019-04-05T23:36:58.905Z,80.73
2019-04-05T23:39:00.595Z,82.07
2019-04-05T23:41:04.223Z,85.63
2019-04-05T23:43:06.050Z,83.27
2019-04-05T23:45:07.969Z,74.50
2019-04-05T23:47:09.688Z,76.00
2019-04-05T23:49:11.407Z,82.17
2019-04-05T23:51:13.089Z,80.20
2019-04-05T23:53:14.800Z,79.27
2019-04-05T23:55:16.518Z,81.60
2019-04-05T23:57:18.204Z,85.23
2019-04-05T23:59:20.017Z,76.63
